Time;durP1;ratioP1;P1;durP2;ratioP2;P2;SDS_P1;SDS_P2;PMS_P1;PMS_P2;Temp;Humidity;BMP_temperature;BMP_pressure;BME280_temperature;BME280_humidity;BME280_pressure;Samples;Min_cycle;Max_cycle;Signal;HPM_P1;HPM_P2
2023/01/22 00:02:23;;;;;;;15.27;8.83;;;1.00;99.90;;;;;;5096418;28;20066;-78
2023/01/22 00:04:49;;;;;;;12.90;9.17;;;0.90;99.90;;;;;;5095793;28;20093;-78
2023/01/22 00:07:15;;;;;;;15.03;9.80;;;1.00;99.90;;;;;;5096343;28;20048;-78
2023/01/22 00:09:41;;;;;;;14.27;9.30;;;0.90;99.90;;;;;;5096636;28;20087;-78
2023/01/22 00:12:07;;;;;;;13.77;9.80;;;0.90;99.90;;;;;;5096464;28;20480;-77
2023/01/22 00:14:33;;;;;;;18.02;10.98;;;0.80;99.90;;;;;;5096100;28;20056;-77
2023/01/22 00:16:59;;;;;;;16.03;9.73;;;0.80;99.90;;;;;;5096612;28;20051;-77
2023/01/22 00:19:24;;;;;;;12.03;9.07;;;0.90;99.90;;;;;;5112100;28;20044;-78
2023/01/22 00:21:50;;;;;;;15.27;9.43;;;0.80;99.90;;;;;;5095109;28;20135;-77
2023/01/22 00:24:16;;;;;;;11.90;8.60;;;0.80;99.90;;;;;;5095457;28;20067;-78
2023/01/22 00:26:42;;;;;;;15.00;8.63;;;0.80;99.90;;;;;;5096219;28;20408;-78
2023/01/22 00:29:08;;;;;;;13.87;9.03;;;0.80;99.90;;;;;;5096103;28;20048;-78
2023/01/22 00:31:34;;;;;;;19.70;11.90;;;0.90;99.90;;;;;;5095667;28;20059;-78
2023/01/22 00:33:59;;;;;;;24.75;12.90;;;0.80;99.90;;;;;;5096049;28;20047;-78
2023/01/22 00:36:25;;;;;;;20.40;12.40;;;0.80;99.90;;;;;;5095729;28;20039;-78
2023/01/22 00:38:51;;;;;;;13.27;9.37;;;0.80;99.90;;;;;;5095692;28;20085;-78
2023/01/22 00:41:18;;;;;;;12.13;7.60;;;0.80;99.90;;;;;;5095481;28;20089;-79
2023/01/22 00:43:44;;;;;;;13.48;8.35;;;0.80;99.90;;;;;;5096083;28;20051;-78
2023/01/22 00:46:15;;;;;;;13.48;8.52;;;0.80;99.90;;;;;;5095818;28;20097;-78
2023/01/22 00:48:44;;;;;;;11.52;7.60;;;0.80;99.90;;;;;;5096016;28;20043;-78
2023/01/22 00:51:11;;;;;;;11.38;7.72;;;0.80;99.90;;;;;;5095785;28;20048;-78
2023/01/22 00:53:40;;;;;;;10.85;7.53;;;0.80;99.90;;;;;;5094439;28;20078;-78
2023/01/22 00:56:06;;;;;;;12.18;8.50;;;0.80;99.90;;;;;;5095157;28;20052;-78
2023/01/22 00:58:32;;;;;;;13.70;8.15;;;0.80;99.90;;;;;;5095133;28;20051;-78
2023/01/22 01:00:58;;;;;;;12.88;8.98;;;0.80;99.90;;;;;;5094875;28;20051;-79
2023/01/22 01:03:26;;;;;;;12.00;7.90;;;0.80;99.90;;;;;;5095055;28;20043;-79
2023/01/22 01:06:05;;;;;;;12.15;7.72;;;0.90;99.90;;;;;;5095419;28;20047;-78
2023/01/22 01:08:41;;;;;;;11.63;7.63;;;0.80;99.90;;;;;;5094819;28;20507;-79
2023/01/22 01:11:07;;;;;;;;;;;0.80;99.90;;;;;;5095942;28;20060;-79
2023/01/22 01:13:37;;;;;;;12.60;7.43;;;0.90;99.90;;;;;;5094998;28;19924;-79
2023/01/22 01:16:17;;;;;;;12.10;7.35;;;0.90;99.90;;;;;;5095525;28;20050;-79
2023/01/22 01:18:43;;;;;;;14.13;8.25;;;0.90;99.90;;;;;;5094986;28;20051;-79
2023/01/22 01:21:10;;;;;;;13.03;7.07;;;0.90;99.90;;;;;;5095085;28;20040;-79
2023/01/22 01:23:36;;;;;;;11.80;7.78;;;0.90;99.90;;;;;;5094528;28;20056;-79
2023/01/22 01:26:07;;;;;;;12.45;7.57;;;0.90;99.90;;;;;;5093963;28;20048;-79
2023/01/22 01:28:35;;;;;;;13.02;7.75;;;0.90;99.90;;;;;;5094763;28;20336;-79
2023/01/22 01:31:04;;;;;;;12.65;8.48;;;1.00;99.90;;;;;;5095000;28;20044;-78
2023/01/22 01:33:31;;;;;;;11.70;7.07;;;0.90;99.90;;;;;;5093419;28;20097;-78
2023/01/22 01:36:05;;;;;;;12.80;8.40;;;0.90;99.90;;;;;;5094928;28;20052;-78
2023/01/22 01:38:31;;;;;;;14.15;8.52;;;0.90;99.90;;;;;;5094700;28;20050;-78
2023/01/22 01:40:57;;;;;;;15.80;9.43;;;0.90;99.90;;;;;;5095053;28;20434;-78
2023/01/22 01:43:23;;;;;;;15.17;9.07;;;0.80;99.90;;;;;;5093124;28;20051;-81
2023/01/22 01:45:49;;;;;;;17.15;8.63;;;0.80;99.90;;;;;;5094691;28;20052;-78
2023/01/22 01:48:23;;;;;;;14.03;8.27;;;0.80;99.90;;;;;;5094707;28;20393;-78
2023/01/22 01:51:14;;;;;;;16.40;9.10;;;0.80;99.90;;;;;;5094941;28;20048;-78
2023/01/22 01:53:42;;;;;;;13.07;8.98;;;0.80;99.90;;;;;;5094386;28;20040;-78
2023/01/22 01:56:12;;;;;;;15.75;9.65;;;0.80;99.90;;;;;;5094678;28;20170;-78
2023/01/22 01:58:41;;;;;;;13.35;8.73;;;0.60;99.90;;;;;;5093861;28;20044;-78
2023/01/22 02:01:14;;;;;;;18.92;10.65;;;0.70;99.90;;;;;;5094424;28;20484;-78
2023/01/22 02:03:40;;;;;;;16.08;9.65;;;0.70;99.90;;;;;;5094045;28;20071;-79
2023/01/22 02:06:14;;;;;;;15.75;9.32;;;0.70;99.90;;;;;;5093666;28;20560;-79
2023/01/22 02:08:44;;;;;;;13.27;9.13;;;0.70;99.90;;;;;;5092964;28;20055;-79
2023/01/22 02:11:10;;;;;;;14.18;9.27;;;0.70;99.90;;;;;;5094281;28;20089;-79
2023/01/22 02:13:41;;;;;;;19.75;10.15;;;0.70;99.90;;;;;;5093951;28;20377;-79
2023/01/22 02:16:09;;;;;;;16.33;10.10;;;0.70;99.90;;;;;;5094334;28;20047;-78
2023/01/22 02:18:34;;;;;;;16.98;10.77;;;0.70;99.90;;;;;;5092829;28;20087;-79
2023/01/22 02:21:01;;;;;;;14.90;10.17;;;0.70;99.90;;;;;;5093735;28;20573;-78
2023/01/22 02:23:29;;;;;;;19.38;9.93;;;0.70;99.90;;;;;;5093746;28;20055;-79
2023/01/22 02:25:56;;;;;;;16.45;10.43;;;0.80;99.90;;;;;;5093088;28;20055;-79
2023/01/22 02:28:22;;;;;;;16.67;9.65;;;0.80;99.90;;;;;;5093625;28;20407;-78
2023/01/22 02:30:48;;;;;;;17.03;10.17;;;0.80;99.90;;;;;;5093592;28;20052;-78
2023/01/22 02:33:14;;;;;;;14.77;9.77;;;0.80;99.90;;;;;;5092612;28;20063;-78
2023/01/22 02:35:40;;;;;;;18.35;10.00;;;0.80;99.90;;;;;;5075420;28;20043;-78
2023/01/22 02:38:06;;;;;;;17.20;10.37;;;0.80;99.90;;;;;;5093575;28;20040;-78
2023/01/22 02:40:32;;;;;;;15.63;10.20;;;0.90;99.90;;;;;;5093396;28;20047;-79
2023/01/22 02:42:59;;;;;;;18.92;10.70;;;0.80;99.90;;;;;;5093822;28;20043;-78
2023/01/22 02:45:25;;;;;;;18.30;10.60;;;0.90;99.90;;;;;;5093553;28;20079;-78
2023/01/22 02:47:50;;;;;;;18.27;11.03;;;0.90;99.90;;;;;;5092058;28;20110;-78
2023/01/22 02:50:16;;;;;;;20.90;11.23;;;0.90;99.90;;;;;;5093605;28;20331;-78
2023/01/22 02:52:42;;;;;;;18.70;11.07;;;1.00;99.90;;;;;;5093271;28;20044;-78
2023/01/22 02:55:09;;;;;;;17.40;10.20;;;0.90;99.90;;;;;;5093353;28;20472;-78
2023/01/22 02:57:34;;;;;;;16.23;10.65;;;1.00;99.90;;;;;;5093160;28;20052;-79
2023/01/22 03:00:00;;;;;;;18.20;10.23;;;1.00;99.90;;;;;;5093419;28;20060;-78
2023/01/22 03:02:26;;;;;;;16.07;11.30;;;1.00;99.90;;;;;;5093280;28;20531;-78
2023/01/22 03:05:02;;;;;;;18.13;11.57;;;1.10;99.90;;;;;;5091815;28;20048;-78
2023/01/22 03:07:40;;;;;;;16.15;10.80;;;1.00;99.90;;;;;;5092568;28;20044;-78
2023/01/22 03:10:14;;;;;;;17.90;10.77;;;1.00;99.90;;;;;;5093284;28;20131;-78
2023/01/22 03:21:16;;;;;;;19.35;10.00;;;1.00;99.90;;;;;;5092909;28;20048;-79
2023/01/22 03:23:47;;;;;;;19.00;10.75;;;1.10;99.90;;;;;;5092459;28;20051;-78
2023/01/22 03:26:13;;;;;;;19.38;9.70;;;1.10;99.90;;;;;;5093261;28;20052;-79
2023/01/22 03:28:39;;;;;;;15.43;9.63;;;1.10;99.90;;;;;;5092633;28;20047;-79
2023/01/22 03:31:07;;;;;;;19.63;9.67;;;1.10;99.90;;;;;;5075187;28;20052;-78
2023/01/22 03:33:33;;;;;;;13.80;8.90;;;1.10;99.90;;;;;;5075258;28;20183;-78
2023/01/22 03:36:04;;;;;;;14.20;9.02;;;1.10;99.90;;;;;;5092697;28;20050;-78
2023/01/22 03:38:29;;;;;;;14.55;8.70;;;1.10;99.90;;;;;;5092925;28;20118;-78
2023/01/22 03:41:03;;;;;;;13.77;8.57;;;1.10;99.90;;;;;;5092628;28;20059;-79
2023/01/22 03:43:29;;;;;;;18.38;7.60;;;1.10;99.90;;;;;;5092709;28;20044;-79
2023/01/22 03:46:00;;;;;;;13.88;8.05;;;1.10;99.90;;;;;;5092454;28;20055;-78
2023/01/22 03:48:26;;;;;;;15.93;8.35;;;1.10;99.90;;;;;;5092853;28;20040;-78
2023/01/22 03:50:52;;;;;;;12.97;6.43;;;1.10;99.90;;;;;;5092410;28;20152;-78
2023/01/22 03:53:17;;;;;;;11.73;6.13;;;1.20;99.90;;;;;;5092789;28;20078;-78
2023/01/22 03:55:43;;;;;;;13.13;6.63;;;1.30;99.90;;;;;;5092227;28;20053;-78
2023/01/22 03:58:09;;;;;;;10.70;6.37;;;1.20;99.90;;;;;;5091769;28;20048;-78
2023/01/22 04:00:34;;;;;;;13.47;6.67;;;1.30;99.90;;;;;;5092856;28;20441;-77
2023/01/22 04:03:00;;;;;;;10.47;5.20;;;1.30;99.90;;;;;;5092273;28;20047;-77
2023/01/22 04:05:26;;;;;;;12.20;5.20;;;1.30;99.90;;;;;;5092653;28;20125;-77
2023/01/22 04:07:51;;;;;;;9.97;5.00;;;1.30;99.90;;;;;;5091216;28;20044;-77
2023/01/22 04:10:17;;;;;;;10.63;5.07;;;1.40;99.90;;;;;;5108710;28;20080;-76
2023/01/22 04:12:43;;;;;;;10.90;4.80;;;1.40;99.90;;;;;;5092349;28;20075;-77
2023/01/22 04:15:09;;;;;;;15.40;5.80;;;1.40;99.90;;;;;;5092569;28;20044;-77
2023/01/22 04:17:35;;;;;;;14.50;4.90;;;1.50;99.90;;;;;;5092262;28;20488;-77
2023/01/22 04:20:01;;;;;;;8.77;4.50;;;1.60;99.90;;;;;;5092362;28;20067;-77
2023/01/22 04:22:26;;;;;;;9.67;5.40;;;1.50;99.90;;;;;;5092313;28;20452;-77
2023/01/22 04:24:52;;;;;;;9.73;4.63;;;1.60;99.90;;;;;;5091871;28;20286;-77
2023/01/22 04:27:18;;;;;;;10.23;4.60;;;1.60;99.90;;;;;;5092283;28;20052;-77
2023/01/22 04:29:44;;;;;;;11.47;4.53;;;1.60;99.90;;;;;;5091746;28;20048;-77
2023/01/22 04:32:09;;;;;;;9.47;4.67;;;1.60;99.90;;;;;;5095541;28;20152;-77
2023/01/22 04:34:35;;;;;;;9.33;4.70;;;1.60;99.90;;;;;;5096049;28;20130;-77
2023/01/22 04:37:01;;;;;;;9.20;4.73;;;1.70;99.90;;;;;;5095763;28;20040;-77
2023/01/22 04:39:26;;;;;;;9.90;4.70;;;1.70;99.90;;;;;;5095973;28;20044;-77
2023/01/22 04:41:52;;;;;;;7.73;4.63;;;1.80;99.90;;;;;;5094502;28;20048;-77
2023/01/22 04:44:18;;;;;;;10.47;4.37;;;1.80;99.90;;;;;;5094719;28;20048;-77
2023/01/22 04:46:43;;;;;;;9.10;4.37;;;1.80;99.90;;;;;;5094776;28;20495;-82
2023/01/22 04:49:09;;;;;;;10.80;4.97;;;1.80;99.90;;;;;;5095526;28;20411;-77
2023/01/22 04:51:35;;;;;;;10.00;4.57;;;1.80;99.90;;;;;;5095860;28;20086;-77
2023/01/22 04:54:00;;;;;;;12.40;4.73;;;1.80;99.90;;;;;;5094574;28;20472;-77
2023/01/22 04:56:26;;;;;;;7.57;4.47;;;1.80;99.90;;;;;;5095738;28;20113;-77
2023/01/22 04:58:52;;;;;;;11.63;4.83;;;1.80;99.90;;;;;;5095389;28;20500;-77
2023/01/22 05:01:17;;;;;;;9.77;5.07;;;1.80;99.90;;;;;;5095115;28;20055;-77
2023/01/22 05:03:43;;;;;;;10.73;4.33;;;1.80;99.90;;;;;;5094280;28;20133;-76
2023/01/22 05:06:09;;;;;;;10.03;5.57;;;1.80;99.90;;;;;;5095307;28;20048;-77
2023/01/22 05:08:34;;;;;;;10.20;5.17;;;1.80;99.90;;;;;;5094465;28;20044;-77
2023/01/22 05:11:01;;;;;;;10.77;4.67;;;1.80;99.90;;;;;;5095086;28;20439;-77
2023/01/22 05:13:27;;;;;;;12.57;5.15;;;1.80;99.90;;;;;;5095357;28;20040;-77
2023/01/22 05:15:53;;;;;;;8.90;4.60;;;1.80;99.90;;;;;;5094090;28;20050;-77
2023/01/22 05:18:19;;;;;;;7.20;4.40;;;1.80;99.90;;;;;;5095209;28;20036;-77
2023/01/22 05:20:44;;;;;;;8.50;4.30;;;1.80;99.90;;;;;;5095380;28;20058;-76
2023/01/22 05:23:10;;;;;;;9.23;4.43;;;1.90;99.90;;;;;;5076627;28;20481;-77
2023/01/22 05:25:36;;;;;;;11.47;4.60;;;1.90;99.90;;;;;;5095271;28;20056;-76
2023/01/22 05:28:02;;;;;;;8.20;4.50;;;1.90;99.90;;;;;;5093960;28;20052;-77
2023/01/22 05:30:27;;;;;;;9.53;4.87;;;1.80;99.90;;;;;;5093820;28;20087;-77
2023/01/22 05:32:56;;;;;;;10.40;4.60;;;1.80;99.90;;;;;;5076855;28;20126;-77
2023/01/22 05:35:23;;;;;;;10.75;5.15;;;1.80;99.90;;;;;;5094900;28;20040;-77
2023/01/22 05:37:48;;;;;;;8.30;4.63;;;1.80;99.90;;;;;;5094967;28;20123;-76
2023/01/22 05:40:14;;;;;;;8.03;4.87;;;1.80;99.90;;;;;;5094714;28;20456;-77
2023/01/22 05:42:40;;;;;;;8.60;4.73;;;1.80;99.90;;;;;;5094952;28;20044;-76
2023/01/22 05:45:06;;;;;;;10.57;4.67;;;1.90;99.90;;;;;;5110464;28;20398;-77
2023/01/22 05:47:31;;;;;;;9.77;4.90;;;1.80;99.90;;;;;;5094907;28;20430;-76
2023/01/22 05:49:57;;;;;;;8.43;4.70;;;1.90;99.90;;;;;;5094388;28;20077;-77
2023/01/22 05:52:23;;;;;;;8.77;4.90;;;1.80;99.90;;;;;;5093537;28;20047;-76
2023/01/22 05:54:48;;;;;;;9.43;4.60;;;1.80;99.90;;;;;;5094574;28;20089;-76
2023/01/22 05:57:14;;;;;;;7.93;3.93;;;1.80;99.90;;;;;;5094214;28;20135;-76
2023/01/22 05:59:40;;;;;;;10.27;4.80;;;1.90;99.90;;;;;;5094176;28;20123;-76
2023/01/22 06:02:06;;;;;;;9.67;4.20;;;1.80;99.90;;;;;;5092825;28;20040;-76
2023/01/22 06:04:31;;;;;;;7.87;4.10;;;1.90;99.90;;;;;;5094404;28;20040;-77
2023/01/22 06:06:57;;;;;;;8.97;3.80;;;1.90;99.90;;;;;;5092954;28;20134;-77
2023/01/22 06:09:23;;;;;;;9.97;4.40;;;1.90;99.90;;;;;;5094319;28;20131;-76
2023/01/22 06:11:49;;;;;;;6.63;3.45;;;1.90;99.90;;;;;;5094304;28;20044;-76
2023/01/22 06:14:14;;;;;;;6.73;3.87;;;1.90;99.90;;;;;;5092974;28;20051;-76
2023/01/22 06:16:40;;;;;;;6.60;3.30;;;1.90;99.90;;;;;;5094259;28;20134;-77
2023/01/22 06:19:06;;;;;;;9.73;4.07;;;1.90;99.90;;;;;;5092470;28;20051;-76
2023/01/22 06:21:31;;;;;;;9.40;4.20;;;1.90;99.90;;;;;;5094041;28;20084;-76
2023/01/22 06:23:57;;;;;;;11.63;3.50;;;2.00;99.90;;;;;;5093495;28;20091;-77
2023/01/22 06:26:23;;;;;;;9.63;3.40;;;1.90;99.90;;;;;;5094040;28;20052;-77
2023/01/22 06:28:48;;;;;;;7.83;3.20;;;1.90;99.90;;;;;;5093868;28;20047;-76
2023/01/22 06:31:14;;;;;;;6.83;3.53;;;1.90;99.90;;;;;;5093631;28;20109;-77
2023/01/22 06:33:40;;;;;;;9.03;3.53;;;2.00;99.90;;;;;;5093562;28;20040;-77
2023/01/22 06:36:06;;;;;;;8.03;3.53;;;1.90;99.90;;;;;;5093288;28;20044;-76
2023/01/22 06:38:32;;;;;;;8.02;3.30;;;1.90;99.90;;;;;;5093831;28;20052;-77
2023/01/22 06:40:59;;;;;;;9.55;3.70;;;1.90;99.90;;;;;;5093508;28;20052;-77
2023/01/22 06:43:26;;;;;;;9.60;3.55;;;1.90;99.90;;;;;;5093395;28;20090;-77
2023/01/22 06:45:52;;;;;;;9.75;3.38;;;1.90;99.90;;;;;;5093627;28;20087;-76
2023/01/22 06:48:18;;;;;;;10.85;3.45;;;1.90;99.90;;;;;;5092292;28;20060;-76
2023/01/22 06:50:44;;;;;;;10.85;4.07;;;1.90;99.90;;;;;;5093488;28;20048;-76
2023/01/22 06:53:11;;;;;;;10.37;4.23;;;2.00;99.90;;;;;;5092842;28;20127;-76
2023/01/22 06:55:37;;;;;;;5.88;3.05;;;2.00;99.90;;;;;;5093508;28;20075;-77
2023/01/22 06:58:03;;;;;;;8.45;3.28;;;2.00;99.90;;;;;;5093101;28;20488;-77
2023/01/22 07:00:29;;;;;;;8.82;3.22;;;2.00;99.90;;;;;;5092334;28;20135;-76
2023/01/22 07:02:55;;;;;;;8.50;3.30;;;2.10;99.90;;;;;;5075422;28;20127;-76
2023/01/22 07:05:21;;;;;;;6.45;3.42;;;2.10;99.90;;;;;;5093061;28;20190;-77
2023/01/22 07:07:47;;;;;;;7.83;3.40;;;2.00;99.90;;;;;;5092992;28;20131;-77
2023/01/22 07:10:13;;;;;;;7.50;3.67;;;2.00;99.90;;;;;;5092739;28;20067;-77
2023/01/22 07:12:39;;;;;;;6.97;3.22;;;2.00;99.90;;;;;;5093200;28;20040;-76
2023/01/22 07:15:06;;;;;;;7.50;3.00;;;1.90;99.90;;;;;;5092962;28;20048;-76
2023/01/22 07:17:33;;;;;;;6.97;2.95;;;2.00;99.90;;;;;;5092902;28;20059;-76
2023/01/22 07:19:58;;;;;;;6.05;3.00;;;2.00;99.90;;;;;;5092991;28;20040;-76
2023/01/22 07:22:24;;;;;;;8.60;3.30;;;2.10;99.90;;;;;;5092783;28;20048;-76
2023/01/22 07:24:51;;;;;;;7.87;3.53;;;2.00;99.90;;;;;;5091785;28;20480;-77
2023/01/22 07:27:16;;;;;;;9.77;2.95;;;2.10;99.90;;;;;;5092780;28;20087;-77
2023/01/22 07:29:42;;;;;;;7.73;3.23;;;2.00;99.90;;;;;;5093056;28;20148;-76
2023/01/22 07:32:08;;;;;;;13.60;3.73;;;2.00;99.90;;;;;;5092807;28;20043;-76
2023/01/22 07:34:34;;;;;;;6.20;3.50;;;2.00;99.90;;;;;;5092956;28;20094;-76
2023/01/22 07:37:02;;;;;;;9.13;3.80;;;1.90;99.90;;;;;;5091922;28;20443;-77
2023/01/22 07:39:28;;;;;;;8.97;4.20;;;1.90;99.90;;;;;;5092375;28;20044;-76
2023/01/22 07:41:54;;;;;;;10.00;4.03;;;1.90;99.90;;;;;;5093058;28;20407;-76
2023/01/22 07:44:20;;;;;;;8.03;3.70;;;1.90;99.90;;;;;;5092525;28;20126;-77
2023/01/22 07:46:45;;;;;;;6.40;3.93;;;2.00;99.90;;;;;;5093030;28;20491;-76
2023/01/22 07:49:11;;;;;;;10.07;4.57;;;2.00;99.90;;;;;;5091567;28;20040;-77
2023/01/22 07:51:37;;;;;;;8.77;3.57;;;2.00;99.90;;;;;;5091862;28;20040;-77
2023/01/22 07:54:03;;;;;;;7.40;3.97;;;2.00;99.90;;;;;;5092788;28;20044;-76
2023/01/22 07:56:29;;;;;;;8.45;4.30;;;2.00;99.90;;;;;;5092821;28;20048;-77
2023/01/22 07:58:54;;;;;;;9.00;4.10;;;1.90;99.90;;;;;;5091584;28;20040;-76
2023/01/22 08:01:20;;;;;;;7.83;4.67;;;2.00;99.90;;;;;;5092465;28;20044;-77
2023/01/22 08:03:46;;;;;;;8.37;4.10;;;2.00;99.90;;;;;;5092652;28;20047;-76
2023/01/22 08:06:16;;;;;;;10.90;6.30;;;2.00;99.90;;;;;;5095103;28;20052;-77
2023/01/22 08:08:42;;;;;;;8.18;4.97;;;2.00;99.90;;;;;;5096897;28;20349;-76
2023/01/22 08:11:08;;;;;;;12.57;6.47;;;1.80;99.90;;;;;;5096230;28;20040;-77
2023/01/22 08:13:34;;;;;;;11.32;6.22;;;2.00;99.90;;;;;;5096536;28;20040;-77
2023/01/22 08:15:59;;;;;;;9.50;4.77;;;2.00;99.90;;;;;;5095252;28;20396;-77
2023/01/22 08:18:25;;;;;;;10.03;4.47;;;1.90;99.90;;;;;;5096135;28;20090;-77
2023/01/22 08:20:51;;;;;;;8.33;4.40;;;1.90;99.90;;;;;;5095077;28;20506;-76
2023/01/22 08:23:17;;;;;;;11.05;4.97;;;2.00;99.90;;;;;;5095684;28;20098;-75
2023/01/22 08:25:43;;;;;;;10.37;5.03;;;2.00;99.90;;;;;;5096293;28;20055;-76
2023/01/22 08:28:08;;;;;;;11.80;5.17;;;2.00;99.90;;;;;;5095902;28;20051;-77
2023/01/22 08:30:34;;;;;;;6.70;4.40;;;2.00;99.90;;;;;;5096521;28;20044;-76
2023/01/22 08:33:04;;;;;;;9.18;4.22;;;2.00;99.90;;;;;;5095096;28;20119;-77
2023/01/22 08:35:30;;;;;;;7.57;4.13;;;2.00;99.90;;;;;;5095716;28;20122;-77
2023/01/22 08:38:00;;;;;;;9.25;4.65;;;2.00;99.90;;;;;;5096065;28;20048;-77
2023/01/22 08:40:26;;;;;;;10.30;5.15;;;2.00;99.90;;;;;;5095692;28;20434;-77
2023/01/22 08:42:53;;;;;;;11.07;4.63;;;2.00;99.90;;;;;;5095903;28;20040;-77
2023/01/22 08:45:19;;;;;;;9.38;4.80;;;2.00;99.90;;;;;;5095714;28;20051;-77
2023/01/22 08:47:45;;;;;;;8.07;4.47;;;2.00;99.90;;;;;;5096105;28;20040;-76
2023/01/22 08:50:11;;;;;;;11.60;4.90;;;2.10;99.90;;;;;;5095463;28;20468;-78
2023/01/22 08:52:37;;;;;;;7.30;5.07;;;2.00;99.90;;;;;;5095808;28;20413;-77
2023/01/22 08:55:05;;;;;;;8.30;4.87;;;2.00;99.90;;;;;;5095672;28;20044;-77
2023/01/22 08:57:31;;;;;;;9.30;5.07;;;2.00;99.90;;;;;;5095422;28;20097;-78
2023/01/22 08:59:57;;;;;;;9.73;5.23;;;2.10;99.90;;;;;;5095569;28;20476;-78
2023/01/22 09:02:22;;;;;;;7.70;5.20;;;1.90;99.90;;;;;;5095230;28;20438;-77
2023/01/22 09:04:48;;;;;;;7.43;5.70;;;2.00;99.90;;;;;;5095769;28;20052;-75
2023/01/22 09:07:14;;;;;;;9.70;5.90;;;2.00;99.90;;;;;;5095293;28;20044;-76
2023/01/22 09:09:39;;;;;;;9.20;5.77;;;2.00;99.90;;;;;;5094282;28;20044;-76
2023/01/22 09:12:05;;;;;;;8.33;5.63;;;2.00;99.90;;;;;;5096144;28;20131;-76
2023/01/22 09:14:31;;;;;;;12.93;5.63;;;2.00;99.90;;;;;;5093926;28;20056;-76
2023/01/22 09:16:56;;;;;;;15.97;7.30;;;2.00;99.90;;;;;;5094679;28;20088;-76
2023/01/22 09:19:22;;;;;;;10.53;6.40;;;2.00;99.90;;;;;;5094122;28;20040;-76
2023/01/22 09:21:48;;;;;;;8.50;5.10;;;2.00;99.90;;;;;;5094875;28;20110;-77
2023/01/22 09:24:14;;;;;;;11.87;6.20;;;2.00;99.90;;;;;;5094873;28;20056;-78
2023/01/22 09:26:40;;;;;;;9.13;5.63;;;2.00;99.90;;;;;;5095300;28;20381;-75
2023/01/22 09:29:06;;;;;;;10.40;5.55;;;2.00;99.90;;;;;;5094765;28;20059;-75
2023/01/22 09:31:33;;;;;;;10.87;6.27;;;2.00;99.90;;;;;;5094776;28;20040;-75
2023/01/22 09:33:59;;;;;;;11.00;6.13;;;2.00;99.90;;;;;;5095016;28;20040;-75
2023/01/22 09:36:25;;;;;;;10.25;6.10;;;2.00;99.90;;;;;;5094683;28;20044;-73
2023/01/22 09:38:51;;;;;;;9.75;5.55;;;2.00;99.90;;;;;;5094854;28;20134;-75
2023/01/22 09:41:28;;;;;;;9.13;5.87;;;2.10;99.90;;;;;;5096411;28;20075;-75
2023/01/22 09:44:05;;;;;;;8.70;6.45;;;2.10;99.90;;;;;;5094665;28;20036;-74
2023/01/22 09:46:30;;;;;;;12.55;6.18;;;2.10;99.90;;;;;;5094594;28;20048;-73
2023/01/22 09:49:07;;;;;;;12.20;7.00;;;2.10;99.90;;;;;;5094970;28;20059;-73
2023/01/22 09:51:34;;;;;;;10.32;5.88;;;2.10;99.90;;;;;;5094582;28;20052;-75
2023/01/22 09:54:02;;;;;;;10.35;6.80;;;2.00;99.90;;;;;;5094715;28;20050;-76
2023/01/22 09:56:41;;;;;;;8.80;5.93;;;2.00;99.90;;;;;;5093268;28;20052;-78
2023/01/22 09:59:16;;;;;;;10.88;6.40;;;1.90;99.90;;;;;;5094610;28;20044;-76
2023/01/22 10:01:46;;;;;;;9.25;6.30;;;1.90;99.90;;;;;;5095197;28;20116;-76
2023/01/22 10:04:40;;;;;;;10.45;6.30;;;2.00;99.90;;;;;;5094634;28;20043;-76
2023/01/22 10:07:29;;;;;;;9.18;6.10;;;2.00;99.90;;;;;;5091405;28;20403;-76
2023/01/22 10:10:00;;;;;;;9.13;6.05;;;2.10;99.90;;;;;;5093744;28;20047;-76
2023/01/22 10:12:31;;;;;;;10.90;6.13;;;2.10;99.90;;;;;;5093133;28;20468;-76
2023/01/22 10:14:56;;;;;;;8.55;5.60;;;2.10;99.90;;;;;;5094420;28;20048;-76
2023/01/22 10:17:28;;;;;;;8.40;5.47;;;2.20;99.90;;;;;;5094030;28;20388;-73
2023/01/22 10:20:01;;;;;;;10.38;6.05;;;2.20;99.90;;;;;;5094253;28;20127;-75
2023/01/22 10:22:27;;;;;;;9.85;5.35;;;2.20;99.90;;;;;;5093108;28;20047;-78
2023/01/22 10:24:53;;;;;;;10.90;6.03;;;2.20;99.90;;;;;;5091627;28;20052;-78
2023/01/22 10:27:32;;;;;;;10.30;5.82;;;2.20;99.90;;;;;;5091326;28;20048;-80
2023/01/22 10:30:01;;;;;;;8.18;5.28;;;2.30;99.90;;;;;;5093278;28;20480;-82
2023/01/22 10:32:29;;;;;;;8.68;5.80;;;2.30;99.90;;;;;;5092449;28;20047;-81
2023/01/22 10:35:06;;;;;;;12.63;5.97;;;2.30;99.90;;;;;;5093376;28;20050;-80
2023/01/22 10:37:46;;;;;;;8.65;6.47;;;2.30;99.90;;;;;;5093012;28;20047;-80
2023/01/22 10:40:43;;;;;;;8.65;5.55;;;2.30;99.90;;;;;;5092841;28;20482;-80
2023/01/22 10:43:08;;;;;;;10.35;6.10;;;2.30;99.90;;;;;;5092573;28;20381;-78
2023/01/22 10:45:34;;;;;;;13.77;6.90;;;2.30;99.90;;;;;;5092139;28;20097;-80
2023/01/22 10:48:05;;;;;;;10.07;6.03;;;2.40;99.90;;;;;;5093452;28;20093;-80
2023/01/22 10:50:31;;;;;;;11.88;6.75;;;2.30;99.90;;;;;;5093276;28;20054;-79
2023/01/22 10:52:57;;;;;;;8.90;5.90;;;2.30;99.90;;;;;;5093424;28;20039;-78
2023/01/22 10:55:29;;;;;;;10.18;5.85;;;2.20;99.90;;;;;;5093298;28;20052;-83
2023/01/22 10:58:02;;;;;;;8.75;5.88;;;2.40;99.90;;;;;;5093480;28;20048;-79
2023/01/22 11:00:34;;;;;;;10.23;5.50;;;2.40;99.90;;;;;;5093231;28;20135;-79
2023/01/22 11:03:00;;;;;;;9.73;5.25;;;2.40;99.90;;;;;;5093451;28;20040;-77
2023/01/22 11:05:32;;;;;;;9.50;5.07;;;2.40;99.90;;;;;;5093016;28;20097;-78
2023/01/22 11:08:15;;;;;;;8.82;5.65;;;2.40;99.90;;;;;;5092288;28;20047;-78
2023/01/22 11:10:47;;;;;;;10.20;5.30;;;2.40;99.90;;;;;;5093104;28;20044;-82
2023/01/22 11:13:21;;;;;;;10.95;6.28;;;2.50;99.90;;;;;;5093171;28;20086;-75
2023/01/22 11:16:03;;;;;;;10.05;5.53;;;2.50;99.90;;;;;;5092986;28;20060;-75
2023/01/22 11:18:36;;;;;;;11.05;6.15;;;2.50;99.90;;;;;;5093064;28;20544;-74
2023/01/22 11:21:31;;;;;;;7.63;5.20;;;2.50;99.90;;;;;;5092498;28;20445;-75
2023/01/22 11:24:09;;;;;;;10.85;5.32;;;2.60;99.90;;;;;;5090169;28;20379;-73
2023/01/22 11:27:02;;;;;;;7.75;4.93;;;2.50;99.90;;;;;;5092511;28;20457;-76
2023/01/22 11:30:15;;;;;;;9.95;6.00;;;2.60;99.90;;;;;;5092423;28;20044;-78
2023/01/22 11:33:11;;;;;;;10.98;5.55;;;2.70;99.90;;;;;;5045379;28;20500;-75
2023/01/22 11:36:02;;;;;;;10.02;5.07;;;2.70;99.90;;;;;;5089909;28;20044;-75
2023/01/22 11:38:27;;;;;;;8.45;5.15;;;2.70;99.90;;;;;;5091516;28;20128;-81
2023/01/22 11:41:31;;;;;;;14.00;6.07;;;2.80;99.90;;;;;;5096878;28;20048;-74
2023/01/22 11:44:09;;;;;;;10.80;5.78;;;2.80;99.90;;;;;;5033911;28;20041;-73
2023/01/22 11:46:52;;;;;;;12.35;5.75;;;2.90;99.90;;;;;;5034239;28;20490;-73
2023/01/22 11:49:39;;;;;;;11.00;5.88;;;2.90;99.90;;;;;;5075872;28;20052;-73
2023/01/22 11:52:52;;;;;;;10.80;5.72;;;3.00;99.90;;;;;;5097029;28;20051;-73
2023/01/22 11:55:55;;;;;;;7.57;5.10;;;3.00;99.90;;;;;;5059112;28;20053;-73
2023/01/22 11:58:26;;;;;;;9.60;5.68;;;3.00;99.90;;;;;;5096851;28;20459;-73
2023/01/22 12:01:26;;;;;;;9.82;5.93;;;3.00;99.90;;;;;;5096583;28;20051;-74
2023/01/22 12:04:29;;;;;;;9.48;5.90;;;3.00;99.90;;;;;;5096433;28;20044;-76
2023/01/22 12:07:00;;;;;;;10.20;6.22;;;3.00;99.90;;;;;;5096281;28;20433;-80
2023/01/22 12:09:45;;;;;;;10.10;5.47;;;3.00;99.90;;;;;;5093503;28;20082;-75
2023/01/22 12:12:32;;;;;;;13.50;6.00;;;3.00;99.90;;;;;;5094369;28;20040;-75
2023/01/22 12:15:06;;;;;;;8.93;6.00;;;3.00;99.90;;;;;;5095221;28;20063;-75
2023/01/22 12:17:50;;;;;;;10.18;5.97;;;3.00;99.90;;;;;;5094489;28;20044;-80
2023/01/22 12:20:40;;;;;;;9.77;6.38;;;3.10;99.90;;;;;;5096582;28;20048;-78
2023/01/22 12:23:14;;;;;;;8.40;5.40;;;3.10;99.90;;;;;;5095427;28;20404;-74
2023/01/22 12:25:51;;;;;;;7.65;5.65;;;3.10;99.90;;;;;;5095730;28;20052;-74
2023/01/22 12:28:20;;;;;;;12.45;5.80;;;3.10;99.90;;;;;;5096553;28;20074;-74
2023/01/22 12:30:59;;;;;;;9.25;5.90;;;3.10;99.90;;;;;;5090597;28;20044;-73
2023/01/22 12:33:28;;;;;;;12.18;6.72;;;3.10;99.90;;;;;;5087322;28;20087;-75
2023/01/22 12:35:58;;;;;;;13.10;8.90;;;3.10;99.90;;;;;;5096527;28;20044;-72
2023/01/22 12:38:35;;;;;;;11.90;8.63;;;3.10;99.90;;;;;;5088973;28;20170;-73
2023/01/22 12:41:19;;;;;;;11.43;7.72;;;3.10;99.90;;;;;;5097211;28;20091;-72
2023/01/22 12:43:57;;;;;;;13.13;8.13;;;3.10;99.90;;;;;;5088570;28;20083;-72
2023/01/22 12:46:26;;;;;;;12.65;7.40;;;3.10;99.90;;;;;;5094897;28;20079;-73
2023/01/22 12:49:10;;;;;;;15.07;7.05;;;3.10;99.90;;;;;;5087486;28;20071;-77
2023/01/22 12:51:42;;;;;;;9.85;5.93;;;3.10;99.90;;;;;;5094839;28;20377;-74
2023/01/22 12:54:27;;;;;;;10.80;6.10;;;3.10;99.90;;;;;;5091540;28;20044;-74
2023/01/22 12:57:21;;;;;;;10.07;5.60;;;3.20;99.90;;;;;;5097376;28;20048;-75
2023/01/22 12:59:52;;;;;;;10.65;5.50;;;3.10;99.90;;;;;;5095424;28;20048;-73
2023/01/22 13:02:29;;;;;;;10.93;5.28;;;3.10;99.90;;;;;;5094883;28;20408;-73
2023/01/22 13:05:07;;;;;;;11.95;5.25;;;3.20;99.90;;;;;;5095178;28;20052;-72
2023/01/22 13:07:39;;;;;;;7.82;5.55;;;3.20;99.90;;;;;;5095477;28;20055;-74
2023/01/22 13:10:28;;;;;;;13.68;5.13;;;3.20;99.90;;;;;;5094866;28;20609;-73
2023/01/22 13:12:57;;;;;;;10.50;5.60;;;3.20;99.90;;;;;;5095197;28;20086;-73